sensor_id;sensor_type;location;lat;lon;timestamp;pressure;altitude;pressure_sealevel;temperature;humidity
73240;BME280;61452;40.054;4.110;2023-04-24T00:03:14;101590.94;;;18.99;58.22
73240;BME280;61452;40.054;4.110;2023-04-24T00:08:17;101596.88;;;19.03;58.27
73240;BME280;61452;40.054;4.110;2023-04-24T00:13:19;101604.97;;;19.02;57.98
73240;BME280;61452;40.054;4.110;2023-04-24T00:18:21;101600.50;;;19.02;57.91
73240;BME280;61452;40.054;4.110;2023-04-24T00:23:23;101599.53;;;19.03;57.91
73240;BME280;61452;40.054;4.110;2023-04-24T00:28:26;101596.13;;;19.01;58.17
73240;BME280;61452;40.054;4.110;2023-04-24T00:33:28;101604.97;;;19.02;58.12
73240;BME280;61452;40.054;4.110;2023-04-24T00:38:30;101611.13;;;19.02;58.25
73240;BME280;61452;40.054;4.110;2023-04-24T00:43:32;101622.63;;;19.03;58.09
73240;BME280;61452;40.054;4.110;2023-04-24T00:48:34;101616.44;;;19.02;58.02
73240;BME280;61452;40.054;4.110;2023-04-24T00:53:36;101618.38;;;19.00;57.99
73240;BME280;61452;40.054;4.110;2023-04-24T00:58:39;101620.06;;;19.01;58.01
73240;BME280;61452;40.054;4.110;2023-04-24T01:03:42;101632.22;;;19.05;58.17
73240;BME280;61452;40.054;4.110;2023-04-24T01:08:46;101631.44;;;19.03;58.23
73240;BME280;61452;40.054;4.110;2023-04-24T01:13:49;101625.38;;;19.01;58.00
73240;BME280;61452;40.054;4.110;2023-04-24T01:18:52;101619.25;;;19.01;58.02
73240;BME280;61452;40.054;4.110;2023-04-24T01:23:55;101605.94;;;19.01;58.43
73240;BME280;61452;40.054;4.110;2023-04-24T01:28:58;101602.31;;;19.02;58.21
73240;BME280;61452;40.054;4.110;2023-04-24T01:34:01;101596.25;;;18.99;58.10
73240;BME280;61452;40.054;4.110;2023-04-24T01:39:04;101590.09;;;18.99;58.11
73240;BME280;61452;40.054;4.110;2023-04-24T01:44:07;101590.81;;;19.01;58.20
73240;BME280;61452;40.054;4.110;2023-04-24T01:49:09;101592.97;;;18.96;58.08
73240;BME280;61452;40.054;4.110;2023-04-24T01:54:12;101610.50;;;18.98;57.96
73240;BME280;61452;40.054;4.110;2023-04-24T01:59:15;101603.38;;;18.99;57.82
73240;BME280;61452;40.054;4.110;2023-04-24T02:04:19;101590.00;;;19.01;58.14
73240;BME280;61452;40.054;4.110;2023-04-24T02:09:21;101582.03;;;19.01;57.99
73240;BME280;61452;40.054;4.110;2023-04-24T02:14:24;101575.09;;;18.98;57.93
73240;BME280;61452;40.054;4.110;2023-04-24T02:19:26;101589.25;;;18.98;58.08
73240;BME280;61452;40.054;4.110;2023-04-24T02:24:28;101593.59;;;18.99;57.75
73240;BME280;61452;40.054;4.110;2023-04-24T02:29:31;101586.47;;;19.00;57.76
73240;BME280;61452;40.054;4.110;2023-04-24T02:34:33;101598.16;;;18.97;57.58
73240;BME280;61452;40.054;4.110;2023-04-24T02:39:35;101592.75;;;18.99;57.64
73240;BME280;61452;40.054;4.110;2023-04-24T02:44:37;101583.94;;;18.98;57.69
73240;BME280;61452;40.054;4.110;2023-04-24T02:49:39;101588.41;;;18.98;57.72
73240;BME280;61452;40.054;4.110;2023-04-24T02:54:42;101588.41;;;18.98;57.60
73240;BME280;61452;40.054;4.110;2023-04-24T02:59:44;101588.41;;;18.98;57.66
73240;BME280;61452;40.054;4.110;2023-04-24T03:04:46;101570.13;;;18.93;57.83
73240;BME280;61452;40.054;4.110;2023-04-24T03:09:50;101584.97;;;18.96;57.48
73240;BME280;61452;40.054;4.110;2023-04-24T03:14:52;101586.59;;;18.98;57.32
73240;BME280;61452;40.054;4.110;2023-04-24T03:19:54;101566.06;;;19.01;57.33
73240;BME280;61452;40.054;4.110;2023-04-24T03:24:57;101572.53;;;18.96;57.22
73240;BME280;61452;40.054;4.110;2023-04-24T03:29:59;101564.56;;;18.96;57.67
73240;BME280;61452;40.054;4.110;2023-04-24T03:35:23;101564.47;;;18.98;57.57
73240;BME280;61452;40.054;4.110;2023-04-24T03:40:27;101566.28;;;18.97;57.62
73240;BME280;61452;40.054;4.110;2023-04-24T03:45:32;101570.84;;;18.95;57.70
73240;BME280;61452;40.054;4.110;2023-04-24T03:50:35;101573.50;;;18.95;57.67
73240;BME280;61452;40.054;4.110;2023-04-24T03:55:38;101561.91;;;18.96;57.57
73240;BME280;61452;40.054;4.110;2023-04-24T04:00:41;101552.13;;;18.97;57.50
73240;BME280;61452;40.054;4.110;2023-04-24T04:06:06;101545.09;;;18.96;57.46
73240;BME280;61452;40.054;4.110;2023-04-24T04:11:08;101548.72;;;18.95;57.40
73240;BME280;61452;40.054;4.110;2023-04-24T04:16:11;101563.63;;;18.97;57.36
73240;BME280;61452;40.054;4.110;2023-04-24T04:21:13;101566.28;;;18.97;57.25
73240;BME280;61452;40.054;4.110;2023-04-24T04:26:15;101577.97;;;18.95;57.23
73240;BME280;61452;40.054;4.110;2023-04-24T04:31:34;101579.78;;;18.94;57.13
73240;BME280;61452;40.054;4.110;2023-04-24T04:36:41;101577.84;;;18.96;56.88
73240;BME280;61452;40.054;4.110;2023-04-24T04:41:57;101576.06;;;18.97;57.23
73240;BME280;61452;40.054;4.110;2023-04-24T04:47:05;101574.47;;;18.94;57.14
73240;BME280;61452;40.054;4.110;2023-04-24T04:52:10;101557.69;;;18.94;57.00
73240;BME280;61452;40.054;4.110;2023-04-24T04:57:12;101555.72;;;18.96;57.03
73240;BME280;61452;40.054;4.110;2023-04-24T05:02:15;101572.53;;;18.96;57.12
73240;BME280;61452;40.054;4.110;2023-04-24T05:07:17;101585.22;;;18.93;57.01
73240;BME280;61452;40.054;4.110;2023-04-24T05:12:24;101577.66;;;18.87;56.85
73240;BME280;61452;40.054;4.110;2023-04-24T05:17:28;101591.25;;;18.95;57.00
73240;BME280;61452;40.054;4.110;2023-04-24T05:22:32;101599.22;;;18.95;56.95
73240;BME280;61452;40.054;4.110;2023-04-24T05:27:34;101607.44;;;18.92;57.02
73240;BME280;61452;40.054;4.110;2023-04-24T05:32:41;101612.66;;;18.93;57.02
73240;BME280;61452;40.054;4.110;2023-04-24T05:37:44;101625.81;;;18.95;56.99
73240;BME280;61452;40.054;4.110;2023-04-24T05:42:47;101629.31;;;18.95;56.93
73240;BME280;61452;40.054;4.110;2023-04-24T05:47:49;101638.38;;;18.93;57.03
73240;BME280;61452;40.054;4.110;2023-04-24T05:52:53;101642.00;;;18.92;57.15
73240;BME280;61452;40.054;4.110;2023-04-24T05:57:59;101651.88;;;18.90;57.11
73240;BME280;61452;40.054;4.110;2023-04-24T06:03:01;101658.91;;;18.91;56.68
73240;BME280;61452;40.054;4.110;2023-04-24T06:08:06;101668.59;;;18.92;56.74
73240;BME280;61452;40.054;4.110;2023-04-24T06:13:12;101668.59;;;18.92;56.64
73240;BME280;61452;40.054;4.110;2023-04-24T06:18:22;101679.41;;;18.89;56.69
73240;BME280;61452;40.054;4.110;2023-04-24T06:23:24;101685.59;;;18.89;56.73
73240;BME280;61452;40.054;4.110;2023-04-24T06:28:27;101689.84;;;18.92;56.43
73240;BME280;61452;40.054;4.110;2023-04-24T06:33:30;101705.81;;;18.92;56.70
73240;BME280;61452;40.054;4.110;2023-04-24T06:38:32;101708.47;;;18.92;56.86
73240;BME280;61452;40.054;4.110;2023-04-24T06:43:35;101717.28;;;18.92;56.94
73240;BME280;61452;40.054;4.110;2023-04-24T06:48:38;101727.06;;;18.92;56.98
73240;BME280;61452;40.054;4.110;2023-04-24T06:53:41;101731.53;;;18.91;56.87
73240;BME280;61452;40.054;4.110;2023-04-24T06:58:43;101741.31;;;18.91;56.72
73240;BME280;61452;40.054;4.110;2023-04-24T07:03:45;101744.84;;;18.91;56.73
73240;BME280;61452;40.054;4.110;2023-04-24T07:08:48;101746.53;;;18.92;56.81
73240;BME280;61452;40.054;4.110;2023-04-24T07:13:50;101743.03;;;18.92;56.77
73240;BME280;61452;40.054;4.110;2023-04-24T07:18:52;101736.84;;;18.91;57.02
73240;BME280;61452;40.054;4.110;2023-04-24T07:23:54;101739.59;;;18.90;56.98
73240;BME280;61452;40.054;4.110;2023-04-24T07:28:56;101736.00;;;18.91;57.20
73240;BME280;61452;40.054;4.110;2023-04-24T07:33:58;101741.41;;;18.89;57.23
73240;BME280;61452;40.054;4.110;2023-04-24T07:39:01;101744.94;;;18.90;57.05
73240;BME280;61452;40.054;4.110;2023-04-24T07:44:03;101731.94;;;18.85;56.98
73240;BME280;61452;40.054;4.110;2023-04-24T07:49:05;101732.50;;;18.90;57.43
73240;BME280;61452;40.054;4.110;2023-04-24T07:54:14;101732.50;;;18.90;57.35
73240;BME280;61452;40.054;4.110;2023-04-24T07:59:16;101743.03;;;18.92;57.31
73240;BME280;61452;40.054;4.110;2023-04-24T08:04:18;101744.84;;;18.91;57.32
73240;BME280;61452;40.054;4.110;2023-04-24T08:09:21;101741.31;;;18.91;57.30
73240;BME280;61452;40.054;4.110;2023-04-24T08:14:23;101744.84;;;18.91;57.42
73240;BME280;61452;40.054;4.110;2023-04-24T08:19:25;101746.63;;;18.91;57.76
73240;BME280;61452;40.054;4.110;2023-04-24T08:24:27;101744.84;;;18.91;57.36
73240;BME280;61452;40.054;4.110;2023-04-24T08:29:29;101743.97;;;18.91;57.27
73240;BME280;61452;40.054;4.110;2023-04-24T08:34:31;101745.78;;;18.90;57.53
73240;BME280;61452;40.054;4.110;2023-04-24T08:39:34;101749.28;;;18.91;57.32
73240;BME280;61452;40.054;4.110;2023-04-24T08:44:36;101751.09;;;18.90;57.27
73240;BME280;61452;40.054;4.110;2023-04-24T08:49:52;101757.28;;;18.91;57.06
73240;BME280;61452;40.054;4.110;2023-04-24T08:54:56;101750.16;;;18.91;57.14
73240;BME280;61452;40.054;4.110;2023-04-24T08:59:58;101751.94;;;18.91;57.15
73240;BME280;61452;40.054;4.110;2023-04-24T09:05:01;101755.38;;;18.93;57.07
73240;BME280;61452;40.054;4.110;2023-04-24T09:10:05;101750.16;;;18.91;57.28
73240;BME280;61452;40.054;4.110;2023-04-24T09:15:08;101757.28;;;18.91;57.26
73240;BME280;61452;40.054;4.110;2023-04-24T09:20:11;101763.53;;;18.90;57.41
73240;BME280;61452;40.054;4.110;2023-04-24T09:25:13;101760.78;;;18.91;57.45
73240;BME280;61452;40.054;4.110;2023-04-24T09:30:20;101767.91;;;18.91;57.30
73240;BME280;61452;40.054;4.110;2023-04-24T09:35:23;101766.94;;;18.92;57.07
73240;BME280;61452;40.054;4.110;2023-04-24T09:40:25;101778.44;;;18.92;57.20
73240;BME280;61452;40.054;4.110;2023-04-24T09:45:35;101778.53;;;18.91;57.30
73240;BME280;61452;40.054;4.110;2023-04-24T09:50:37;101785.56;;;18.92;57.26
73240;BME280;61452;40.054;4.110;2023-04-24T09:55:45;101782.81;;;18.93;57.28
73240;BME280;61452;40.054;4.110;2023-04-24T10:00:53;101773.97;;;18.93;57.31
73240;BME280;61452;40.054;4.110;2023-04-24T10:06:02;101779.28;;;18.93;57.38
73240;BME280;61452;40.054;4.110;2023-04-24T10:11:04;101779.28;;;18.93;57.51
73240;BME280;61452;40.054;4.110;2023-04-24T10:16:07;101774.69;;;18.95;56.88
73240;BME280;61452;40.054;4.110;2023-04-24T10:21:10;101778.22;;;18.95;57.43
73240;BME280;61452;40.054;4.110;2023-04-24T10:26:13;101783.66;;;18.94;57.80
73240;BME280;61452;40.054;4.110;2023-04-24T10:31:19;101788.97;;;18.94;57.67
73240;BME280;61452;40.054;4.110;2023-04-24T10:36:23;101780.16;;;18.93;57.62
73240;BME280;61452;40.054;4.110;2023-04-24T10:41:30;101779.19;;;18.94;57.63
73240;BME280;61452;40.054;4.110;2023-04-24T10:46:32;101786.19;;;18.95;57.68
73240;BME280;61452;40.054;4.110;2023-04-24T10:52:08;101783.44;;;18.97;57.43
73240;BME280;61452;40.054;4.110;2023-04-24T11:02:37;101775.78;;;18.92;57.69
73240;BME280;61452;40.054;4.110;2023-04-24T11:08:14;101772.81;;;18.97;57.76
73240;BME280;61452;40.054;4.110;2023-04-24T11:13:21;101762.06;;;18.98;57.34
73240;BME280;61452;40.054;4.110;2023-04-24T11:18:23;101756.00;;;18.96;58.02
73240;BME280;61452;40.054;4.110;2023-04-24T11:23:26;101747.16;;;18.96;58.06
73240;BME280;61452;40.054;4.110;2023-04-24T11:28:28;101750.59;;;18.98;57.28
73240;BME280;61452;40.054;4.110;2023-04-24T11:33:31;101755.81;;;18.99;57.67
73240;BME280;61452;40.054;4.110;2023-04-24T11:38:33;101747.06;;;18.97;57.66
73240;BME280;61452;40.054;4.110;2023-04-24T11:43:36;101753.25;;;18.98;57.57
73240;BME280;61452;40.054;4.110;2023-04-24T11:48:38;101743.38;;;19.00;57.49
73240;BME280;61452;40.054;4.110;2023-04-24T11:53:46;101733.59;;;19.01;57.65
73240;BME280;61452;40.054;4.110;2023-04-24T11:58:53;101739.84;;;18.99;57.82
73240;BME280;61452;40.054;4.110;2023-04-24T12:04:01;101738.16;;;18.98;57.72
73240;BME280;61452;40.054;4.110;2023-04-24T12:09:03;101748.56;;;19.02;57.49
73240;BME280;61452;40.054;4.110;2023-04-24T12:14:18;101729.09;;;19.01;57.67
73240;BME280;61452;40.054;4.110;2023-04-24T12:19:22;101724.75;;;19.00;57.76
73240;BME280;61452;40.054;4.110;2023-04-24T12:24:24;101723.75;;;19.01;57.70
73240;BME280;61452;40.054;4.110;2023-04-24T12:29:26;101731.53;;;19.04;57.56
73240;BME280;61452;40.054;4.110;2023-04-24T12:34:28;101723.66;;;19.03;57.43
73240;BME280;61452;40.054;4.110;2023-04-24T12:39:33;101720.28;;;19.01;57.74
73240;BME280;61452;40.054;4.110;2023-04-24T12:44:35;101713.97;;;19.02;57.83
73240;BME280;61452;40.054;4.110;2023-04-24T12:49:38;101710.69;;;18.98;57.29
73240;BME280;61452;40.054;4.110;2023-04-24T12:54:41;101710.28;;;19.04;57.51
73240;BME280;61452;40.054;4.110;2023-04-24T12:59:43;101699.97;;;18.99;58.03
73240;BME280;61452;40.054;4.110;2023-04-24T13:04:46;101708.47;;;19.05;57.87
73240;BME280;61452;40.054;4.110;2023-04-24T13:09:50;101695.19;;;19.05;57.75
73240;BME280;61452;40.054;4.110;2023-04-24T13:14:52;101689.00;;;19.04;57.88
73240;BME280;61452;40.054;4.110;2023-04-24T13:19:55;101683.69;;;19.04;58.07
73240;BME280;61452;40.054;4.110;2023-04-24T13:24:57;101677.41;;;19.05;57.82
73240;BME280;61452;40.054;4.110;2023-04-24T13:29:59;101687.09;;;19.06;57.79
73240;BME280;61452;40.054;4.110;2023-04-24T13:35:01;101672.09;;;19.05;57.75
73240;BME280;61452;40.054;4.110;2023-04-24T13:40:04;101666.88;;;19.04;57.99
73240;BME280;61452;40.054;4.110;2023-04-24T13:45:08;101665.69;;;19.08;57.82
73240;BME280;61452;40.054;4.110;2023-04-24T13:50:25;101664.84;;;19.07;57.83
73240;BME280;61452;40.054;4.110;2023-04-24T13:55:28;101662.19;;;19.07;57.88
73240;BME280;61452;40.054;4.110;2023-04-24T14:00:30;101660.50;;;19.06;57.90
73240;BME280;61452;40.054;4.110;2023-04-24T14:05:33;101654.75;;;19.12;57.78
73240;BME280;61452;40.054;4.110;2023-04-24T14:10:35;101648.69;;;19.10;57.65
73240;BME280;61452;40.054;4.110;2023-04-24T14:15:37;101649.31;;;19.14;57.58
73240;BME280;61452;40.054;4.110;2023-04-24T14:20:39;101637.94;;;19.12;57.96
73240;BME280;61452;40.054;4.110;2023-04-24T14:25:42;101637.94;;;19.12;57.86
73240;BME280;61452;40.054;4.110;2023-04-24T14:30:44;101628.03;;;19.14;57.74
73240;BME280;61452;40.054;4.110;2023-04-24T14:35:46;101630.81;;;19.12;57.85
73240;BME280;61452;40.054;4.110;2023-04-24T14:40:49;101623.91;;;19.10;57.89
73240;BME280;61452;40.054;4.110;2023-04-24T14:45:54;101620.19;;;19.12;57.75
73240;BME280;61452;40.054;4.110;2023-04-24T14:50:56;101620.03;;;19.14;57.65
73240;BME280;61452;40.054;4.110;2023-04-24T14:55:58;101629.88;;;19.13;57.80
73240;BME280;61452;40.054;4.110;2023-04-24T15:01:01;101627.41;;;19.10;58.03
73240;BME280;61452;40.054;4.110;2023-04-24T15:06:03;101642.19;;;19.14;58.00
73240;BME280;61452;40.054;4.110;2023-04-24T15:11:05;101630.59;;;19.15;57.84
73240;BME280;61452;40.054;4.110;2023-04-24T15:16:08;101628.78;;;19.16;58.59
73240;BME280;61452;40.054;4.110;2023-04-24T15:21:10;101623.47;;;19.16;58.62
73240;BME280;61452;40.054;4.110;2023-04-24T15:26:12;101617.09;;;19.18;58.58
73240;BME280;61452;40.054;4.110;2023-04-24T15:31:14;101621.56;;;19.18;58.57
73240;BME280;61452;40.054;4.110;2023-04-24T15:36:17;101625.16;;;19.17;58.71
73240;BME280;61452;40.054;4.110;2023-04-24T15:41:20;101623.34;;;19.17;59.11
73240;BME280;61452;40.054;4.110;2023-04-24T15:46:22;101624.13;;;19.19;58.90
73240;BME280;61452;40.054;4.110;2023-04-24T15:51:24;101631.09;;;19.20;58.95
73240;BME280;61452;40.054;4.110;2023-04-24T15:56:27;101631.09;;;19.20;58.57
73240;BME280;61452;40.054;4.110;2023-04-24T16:01:32;101632.09;;;19.19;58.88
73240;BME280;61452;40.054;4.110;2023-04-24T16:06:34;101629.28;;;19.21;58.76
73240;BME280;61452;40.054;4.110;2023-04-24T16:11:36;101628.34;;;19.22;58.89
73240;BME280;61452;40.054;4.110;2023-04-24T16:16:40;101630.16;;;19.21;58.74
73240;BME280;61452;40.054;4.110;2023-04-24T16:21:42;101625.69;;;19.22;58.62
73240;BME280;61452;40.054;4.110;2023-04-24T16:26:44;101624.72;;;19.23;58.46
73240;BME280;61452;40.054;4.110;2023-04-24T16:31:46;101617.81;;;19.20;58.55
73240;BME280;61452;40.054;4.110;2023-04-24T16:36:49;101623.88;;;19.22;58.49
73240;BME280;61452;40.054;4.110;2023-04-24T16:41:51;101621.97;;;19.24;58.40
73240;BME280;61452;40.054;4.110;2023-04-24T16:46:54;101619.50;;;19.21;58.31
73240;BME280;61452;40.054;4.110;2023-04-24T16:51:58;101621.22;;;19.22;58.44
73240;BME280;61452;40.054;4.110;2023-04-24T16:57:00;101625.47;;;19.25;58.45
73240;BME280;61452;40.054;4.110;2023-04-24T17:02:03;101617.38;;;19.26;58.15
73240;BME280;61452;40.054;4.110;2023-04-24T17:07:05;101631.66;;;19.25;58.02
73240;BME280;61452;40.054;4.110;2023-04-24T17:12:07;101622.06;;;19.23;58.33
73240;BME280;61452;40.054;4.110;2023-04-24T17:17:09;101622.81;;;19.25;58.16
73240;BME280;61452;40.054;4.110;2023-04-24T17:22:11;101611.19;;;19.26;58.02
73240;BME280;61452;40.054;4.110;2023-04-24T17:27:13;101606.63;;;19.28;58.11
73240;BME280;61452;40.054;4.110;2023-04-24T17:32:16;101604.31;;;19.23;58.40
73240;BME280;61452;40.054;4.110;2023-04-24T17:37:18;101603.97;;;19.28;58.18
73240;BME280;61452;40.054;4.110;2023-04-24T17:42:23;101605.66;;;19.29;57.95
73240;BME280;61452;40.054;4.110;2023-04-24T17:47:26;101609.19;;;19.29;58.09
73240;BME280;61452;40.054;4.110;2023-04-24T17:52:30;101609.28;;;19.28;58.12
73240;BME280;61452;40.054;4.110;2023-04-24T17:57:32;101603.13;;;19.27;58.08
73240;BME280;61452;40.054;4.110;2023-04-24T18:02:34;101613.66;;;19.29;57.94
73240;BME280;61452;40.054;4.110;2023-04-24T18:07:37;101614.41;;;19.31;57.98
73240;BME280;61452;40.054;4.110;2023-04-24T18:12:39;101606.88;;;19.25;58.02
73240;BME280;61452;40.054;4.110;2023-04-24T18:17:42;101608.22;;;19.30;58.11
73240;BME280;61452;40.054;4.110;2023-04-24T18:22:44;101615.25;;;19.31;58.00
73240;BME280;61452;40.054;4.110;2023-04-24T18:27:47;101610.13;;;19.28;57.70
73240;BME280;61452;40.054;4.110;2023-04-24T18:32:50;101609.38;;;19.26;57.96
73240;BME280;61452;40.054;4.110;2023-04-24T18:37:54;101609.06;;;19.31;58.02
73240;BME280;61452;40.054;4.110;2023-04-24T18:42:56;101608.22;;;19.30;57.85
73240;BME280;61452;40.054;4.110;2023-04-24T18:47:58;101595.88;;;19.29;57.88
73240;BME280;61452;40.054;4.110;2023-04-24T18:53:00;101616.41;;;19.27;58.05
73240;BME280;61452;40.054;4.110;2023-04-24T18:58:03;101616.31;;;19.29;57.98
73240;BME280;61452;40.054;4.110;2023-04-24T19:03:05;101620.69;;;19.30;57.88
73240;BME280;61452;40.054;4.110;2023-04-24T19:08:09;101635.88;;;19.28;57.95
73240;BME280;61452;40.054;4.110;2023-04-24T19:13:12;101642.28;;;19.25;57.98
73240;BME280;61452;40.054;4.110;2023-04-24T19:18:14;101636.53;;;19.31;57.85
73240;BME280;61452;40.054;4.110;2023-04-24T19:23:17;101628.84;;;19.27;57.63
73240;BME280;61452;40.054;4.110;2023-04-24T19:28:19;101639.31;;;19.30;57.81
73240;BME280;61452;40.054;4.110;2023-04-24T19:33:21;101636.84;;;19.27;57.72
73240;BME280;61452;40.054;4.110;2023-04-24T19:38:24;101657.81;;;19.31;57.83
73240;BME280;61452;40.054;4.110;2023-04-24T19:43:26;101664.09;;;19.30;57.70
73240;BME280;61452;40.054;4.110;2023-04-24T19:48:28;101682.06;;;19.27;57.83
73240;BME280;61452;40.054;4.110;2023-04-24T19:53:33;101682.06;;;19.27;57.78
73240;BME280;61452;40.054;4.110;2023-04-24T19:58:35;101692.69;;;19.27;57.68
73240;BME280;61452;40.054;4.110;2023-04-24T20:03:37;101700.59;;;19.28;57.80
73240;BME280;61452;40.054;4.110;2023-04-24T20:08:39;101700.47;;;19.30;57.64
73240;BME280;61452;40.054;4.110;2023-04-24T20:13:43;101712.28;;;19.26;57.80
73240;BME280;61452;40.054;4.110;2023-04-24T20:18:45;101716.66;;;19.27;57.66
73240;BME280;61452;40.054;4.110;2023-04-24T20:23:47;101714.94;;;19.26;57.55
73240;BME280;61452;40.054;4.110;2023-04-24T20:28:49;101713.88;;;19.28;57.54
73240;BME280;61452;40.054;4.110;2023-04-24T20:33:52;101716.44;;;19.30;57.55
73240;BME280;61452;40.054;4.110;2023-04-24T20:38:54;101707.81;;;19.26;57.53
73240;BME280;61452;40.054;4.110;2023-04-24T20:43:58;101707.72;;;19.28;57.67
73240;BME280;61452;40.054;4.110;2023-04-24T20:49:00;101714.22;;;19.24;57.55
73240;BME280;61452;40.054;4.110;2023-04-24T20:54:03;101712.41;;;19.24;57.65
73240;BME280;61452;40.054;4.110;2023-04-24T20:59:06;101713.03;;;19.28;57.33
73240;BME280;61452;40.054;4.110;2023-04-24T21:04:09;101703.25;;;19.28;57.46
73240;BME280;61452;40.054;4.110;2023-04-24T21:09:11;101702.50;;;19.26;57.44
73240;BME280;61452;40.054;4.110;2023-04-24T21:14:13;101701.75;;;19.24;57.47
73240;BME280;61452;40.054;4.110;2023-04-24T21:19:15;101700.47;;;19.30;57.50
73240;BME280;61452;40.054;4.110;2023-04-24T21:24:17;101700.47;;;19.30;57.37
73240;BME280;61452;40.054;4.110;2023-04-24T21:29:19;101704.19;;;19.27;57.48
73240;BME280;61452;40.054;4.110;2023-04-24T21:34:22;101689.41;;;19.23;57.54
73240;BME280;61452;40.054;4.110;2023-04-24T21:39:24;101690.69;;;19.30;57.37
73240;BME280;61452;40.054;4.110;2023-04-24T21:44:26;101682.72;;;19.30;57.39
73240;BME280;61452;40.054;4.110;2023-04-24T21:49:28;101684.84;;;19.25;57.67
73240;BME280;61452;40.054;4.110;2023-04-24T21:54:30;101684.84;;;19.25;57.52
73240;BME280;61452;40.054;4.110;2023-04-24T21:59:33;101692.50;;;19.30;57.45
73240;BME280;61452;40.054;4.110;2023-04-24T22:04:35;101684.63;;;19.28;57.52
73240;BME280;61452;40.054;4.110;2023-04-24T22:09:38;101689.31;;;19.25;57.51
73240;BME280;61452;40.054;4.110;2023-04-24T22:14:40;101681.97;;;19.28;57.48
73240;BME280;61452;40.054;4.110;2023-04-24T22:19:42;101667.72;;;19.29;57.57
73240;BME280;61452;40.054;4.110;2023-04-24T22:24:44;101673.13;;;19.28;57.35
73240;BME280;61452;40.054;4.110;2023-04-24T22:29:46;101656.75;;;19.21;57.47
73240;BME280;61452;40.054;4.110;2023-04-24T22:34:48;101657.16;;;19.28;57.58
73240;BME280;61452;40.054;4.110;2023-04-24T22:39:50;101652.59;;;19.30;57.59
73240;BME280;61452;40.054;4.110;2023-04-24T22:44:53;101656.22;;;19.29;57.60
73240;BME280;61452;40.054;4.110;2023-04-24T22:49:55;101651.22;;;19.24;57.50
73240;BME280;61452;40.054;4.110;2023-04-24T22:54:58;101652.09;;;19.25;57.63
73240;BME280;61452;40.054;4.110;2023-04-24T23:12:20;101656.22;;;19.29;57.61
73240;BME280;61452;40.054;4.110;2023-04-24T23:17:22;101653.66;;;19.27;57.42
